Terminal Aerodrome Forecast
Issued by NWS Tuscon, AZ

Home | Current Version | Previous Version | Text Only | Print | Product List | Glossary On
Versions: 1 2 3 4 5 6 7 8 9 10 11 12 13 14 15 16 17 18 19
000
FTUS45 KTWC 161700
TAFTUS
TAF
KTUS 161736Z 1618/1718 16005KT P6SM -SHRA SCT080 OVC100
      TEMPO 1622/1624 -TSRA BKN080CB
     FM170000 12009KT P6SM -SHRA BKN050 OVC080
     FM170600 14012KT P6SM -SHRA SCT040 BKN060 OVC080
      TEMPO 1708/1712 -TSRA BKN040CB OVC060
     FM171200 13010KT P6SM SHRA BKN040 OVC060=

USA.gov is the U.S. government's official web portal to all federal, state and local government web resources and services.